sensor_id;sensor_type;location;lat;lon;timestamp;temperature;humidity
75113;DHT22;63692;47.338;8.520;2023-01-25T05:30:56;2.20;91.90
75113;DHT22;63692;47.338;8.520;2023-01-25T05:33:21;2.20;91.90
75113;DHT22;63692;47.338;8.520;2023-01-25T05:35:47;2.20;92.00
75113;DHT22;63692;47.338;8.520;2023-01-25T05:48:18;2.30;92.30
75113;DHT22;63692;47.338;8.520;2023-01-25T06:13:14;2.40;92.30
75113;DHT22;63692;47.338;8.520;2023-01-25T06:23:29;2.50;91.80
75113;DHT22;63692;47.338;8.520;2023-01-25T06:28:32;2.60;92.00
75113;DHT22;63692;47.338;8.520;2023-01-25T06:33:33;2.60;92.70
75113;DHT22;63692;47.338;8.520;2023-01-25T06:36:10;2.60;92.10
75113;DHT22;63692;47.338;8.520;2023-01-25T06:43:32;2.60;91.60
75113;DHT22;63692;47.338;8.520;2023-01-25T06:45:59;2.60;91.70
75113;DHT22;63692;47.338;8.520;2023-01-25T06:50:58;2.70;91.80
75113;DHT22;63692;47.338;8.520;2023-01-25T06:53:25;2.70;91.90
75113;DHT22;63692;47.338;8.520;2023-01-25T06:56:12;2.70;92.10
75113;DHT22;63692;47.338;8.520;2023-01-25T06:58:39;2.70;92.10
75113;DHT22;63692;47.338;8.520;2023-01-25T07:01:15;2.70;92.00
75113;DHT22;63692;47.338;8.520;2023-01-25T07:03:50;2.70;91.90
75113;DHT22;63692;47.338;8.520;2023-01-25T07:06:16;2.70;91.80
75113;DHT22;63692;47.338;8.520;2023-01-25T07:08:42;2.80;91.80
75113;DHT22;63692;47.338;8.520;2023-01-25T07:11:10;2.80;91.90
75113;DHT22;63692;47.338;8.520;2023-01-25T07:16:09;2.80;91.60
75113;DHT22;63692;47.338;8.520;2023-01-25T07:18:35;2.80;91.70
75113;DHT22;63692;47.338;8.520;2023-01-25T07:21:07;2.80;91.70
75113;DHT22;63692;47.338;8.520;2023-01-25T07:35:50;2.80;91.90
75113;DHT22;63692;47.338;8.520;2023-01-25T07:38:16;2.80;92.00
75113;DHT22;63692;47.338;8.520;2023-01-25T07:40:41;2.80;91.80
75113;DHT22;63692;47.338;8.520;2023-01-25T07:43:07;2.80;91.70
75113;DHT22;63692;47.338;8.520;2023-01-25T07:45:32;2.90;91.50
75113;DHT22;63692;47.338;8.520;2023-01-25T07:47:58;2.80;91.20
75113;DHT22;63692;47.338;8.520;2023-01-25T07:50:25;2.90;91.10
75113;DHT22;63692;47.338;8.520;2023-01-25T07:52:52;2.90;91.40
75113;DHT22;63692;47.338;8.520;2023-01-25T07:55:17;2.90;91.40
75113;DHT22;63692;47.338;8.520;2023-01-25T08:00:11;2.90;91.30
75113;DHT22;63692;47.338;8.520;2023-01-25T08:02:38;2.90;91.40
75113;DHT22;63692;47.338;8.520;2023-01-25T08:05:04;2.90;91.40
75113;DHT22;63692;47.338;8.520;2023-01-25T08:07:30;2.80;91.40
75113;DHT22;63692;47.338;8.520;2023-01-25T08:09:56;2.80;91.40
75113;DHT22;63692;47.338;8.520;2023-01-25T08:14:49;2.90;91.20
75113;DHT22;63692;47.338;8.520;2023-01-25T08:17:15;2.90;91.30
75113;DHT22;63692;47.338;8.520;2023-01-25T08:19:40;2.80;91.30
75113;DHT22;63692;47.338;8.520;2023-01-25T08:22:07;2.80;91.40
75113;DHT22;63692;47.338;8.520;2023-01-25T08:24:33;2.80;91.40
75113;DHT22;63692;47.338;8.520;2023-01-25T08:27:05;2.80;91.60
75113;DHT22;63692;47.338;8.520;2023-01-25T08:29:31;2.80;91.50
75113;DHT22;63692;47.338;8.520;2023-01-25T08:31:57;2.90;91.50
75113;DHT22;63692;47.338;8.520;2023-01-25T08:34:23;2.80;91.40
75113;DHT22;63692;47.338;8.520;2023-01-25T08:36:48;2.80;91.30
75113;DHT22;63692;47.338;8.520;2023-01-25T08:39:14;2.80;91.30
75113;DHT22;63692;47.338;8.520;2023-01-25T08:41:39;2.80;91.40
75113;DHT22;63692;47.338;8.520;2023-01-25T08:49:01;2.80;91.50
75113;DHT22;63692;47.338;8.520;2023-01-25T08:51:28;2.90;91.50
75113;DHT22;63692;47.338;8.520;2023-01-25T08:53:55;2.80;91.90
75113;DHT22;63692;47.338;8.520;2023-01-25T08:56:21;2.90;91.70
75113;DHT22;63692;47.338;8.520;2023-01-25T08:58:49;2.90;91.90
75113;DHT22;63692;47.338;8.520;2023-01-25T09:01:17;2.90;91.90
75113;DHT22;63692;47.338;8.520;2023-01-25T09:03:45;2.90;91.80
75113;DHT22;63692;47.338;8.520;2023-01-25T09:06:17;2.90;91.80
75113;DHT22;63692;47.338;8.520;2023-01-25T09:08:44;2.90;91.80
75113;DHT22;63692;47.338;8.520;2023-01-25T09:11:12;2.90;91.60
75113;DHT22;63692;47.338;8.520;2023-01-25T09:13:38;3.00;91.70
75113;DHT22;63692;47.338;8.520;2023-01-25T09:16:09;3.00;91.50
75113;DHT22;63692;47.338;8.520;2023-01-25T09:18:36;3.00;91.30
75113;DHT22;63692;47.338;8.520;2023-01-25T09:21:10;3.00;91.60
75113;DHT22;63692;47.338;8.520;2023-01-25T09:23:36;3.00;91.20
75113;DHT22;63692;47.338;8.520;2023-01-25T09:26:02;2.90;91.50
75113;DHT22;63692;47.338;8.520;2023-01-25T09:28:28;2.90;91.60
75113;DHT22;63692;47.338;8.520;2023-01-25T09:30:59;2.90;91.70
75113;DHT22;63692;47.338;8.520;2023-01-25T09:33:26;2.90;91.70
75113;DHT22;63692;47.338;8.520;2023-01-25T09:35:52;2.90;91.80
75113;DHT22;63692;47.338;8.520;2023-01-25T09:38:18;3.00;92.00
75113;DHT22;63692;47.338;8.520;2023-01-25T09:43:28;3.00;91.50
75113;DHT22;63692;47.338;8.520;2023-01-25T09:45:58;3.00;91.60
75113;DHT22;63692;47.338;8.520;2023-01-25T09:48:44;3.00;91.30
75113;DHT22;63692;47.338;8.520;2023-01-25T09:51:25;3.00;91.20
75113;DHT22;63692;47.338;8.520;2023-01-25T09:53:54;3.10;91.30
75113;DHT22;63692;47.338;8.520;2023-01-25T09:56:28;3.00;91.50
75113;DHT22;63692;47.338;8.520;2023-01-25T09:59:17;3.00;91.60
75113;DHT22;63692;47.338;8.520;2023-01-25T10:04:39;3.00;92.00
75113;DHT22;63692;47.338;8.520;2023-01-25T10:10:17;3.00;91.70
75113;DHT22;63692;47.338;8.520;2023-01-25T10:12:44;3.00;91.50
75113;DHT22;63692;47.338;8.520;2023-01-25T10:15:18;3.10;91.60
75113;DHT22;63692;47.338;8.520;2023-01-25T10:17:44;3.10;91.80
75113;DHT22;63692;47.338;8.520;2023-01-25T10:20:24;3.10;91.40
75113;DHT22;63692;47.338;8.520;2023-01-25T10:26:06;3.10;91.30
75113;DHT22;63692;47.338;8.520;2023-01-25T10:34:01;3.10;91.20
75113;DHT22;63692;47.338;8.520;2023-01-25T10:36:29;3.20;91.30
75113;DHT22;63692;47.338;8.520;2023-01-25T10:38:55;3.20;91.20
75113;DHT22;63692;47.338;8.520;2023-01-25T10:44:00;3.20;90.90
75113;DHT22;63692;47.338;8.520;2023-01-25T10:49:26;3.20;91.20
75113;DHT22;63692;47.338;8.520;2023-01-25T10:51:54;3.20;91.20
75113;DHT22;63692;47.338;8.520;2023-01-25T10:54:21;3.20;91.10
75113;DHT22;63692;47.338;8.520;2023-01-25T11:19:39;3.20;90.90
75113;DHT22;63692;47.338;8.520;2023-01-25T11:29:35;3.10;90.70
75113;DHT22;63692;47.338;8.520;2023-01-25T11:50:19;3.10;90.80
75113;DHT22;63692;47.338;8.520;2023-01-25T12:01:08;3.00;91.00
75113;DHT22;63692;47.338;8.520;2023-01-25T12:21:49;3.00;91.00
75113;DHT22;63692;47.338;8.520;2023-01-25T12:32:36;3.00;91.10
75113;DHT22;63692;47.338;8.520;2023-01-25T12:40:08;3.00;91.30
75113;DHT22;63692;47.338;8.520;2023-01-25T12:42:46;2.90;91.60
75113;DHT22;63692;47.338;8.520;2023-01-25T12:45:24;2.90;91.50
75113;DHT22;63692;47.338;8.520;2023-01-25T12:48:24;2.90;91.50
75113;DHT22;63692;47.338;8.520;2023-01-25T12:53:40;3.00;91.50
75113;DHT22;63692;47.338;8.520;2023-01-25T12:56:20;3.00;91.60
75113;DHT22;63692;47.338;8.520;2023-01-25T12:59:15;3.00;91.40
75113;DHT22;63692;47.338;8.520;2023-01-25T13:01:50;3.00;91.40
75113;DHT22;63692;47.338;8.520;2023-01-25T13:04:48;3.00;91.40
75113;DHT22;63692;47.338;8.520;2023-01-25T13:07:38;3.00;91.60
75113;DHT22;63692;47.338;8.520;2023-01-25T13:10:23;2.90;91.60
75113;DHT22;63692;47.338;8.520;2023-01-25T13:12:59;2.90;91.80
75113;DHT22;63692;47.338;8.520;2023-01-25T13:15:42;2.90;91.70
75113;DHT22;63692;47.338;8.520;2023-01-25T13:20:51;2.90;91.90
75113;DHT22;63692;47.338;8.520;2023-01-25T13:23:35;2.90;91.90
75113;DHT22;63692;47.338;8.520;2023-01-25T13:28:52;2.90;91.90
75113;DHT22;63692;47.338;8.520;2023-01-25T13:44:37;2.80;92.00
75113;DHT22;63692;47.338;8.520;2023-01-25T13:47:06;2.80;92.00
75113;DHT22;63692;47.338;8.520;2023-01-25T13:49:38;2.80;92.10
75113;DHT22;63692;47.338;8.520;2023-01-25T13:52:05;2.80;92.00
75113;DHT22;63692;47.338;8.520;2023-01-25T13:54:30;2.80;92.10
75113;DHT22;63692;47.338;8.520;2023-01-25T13:57:19;2.80;92.20
75113;DHT22;63692;47.338;8.520;2023-01-25T14:02:19;2.80;92.40
75113;DHT22;63692;47.338;8.520;2023-01-25T14:17:20;2.90;92.00
75113;DHT22;63692;47.338;8.520;2023-01-25T14:19:49;2.90;92.30
75113;DHT22;63692;47.338;8.520;2023-01-25T14:22:29;2.90;92.10
75113;DHT22;63692;47.338;8.520;2023-01-25T14:27:30;2.80;92.20
75113;DHT22;63692;47.338;8.520;2023-01-25T14:29:55;2.80;92.30
75113;DHT22;63692;47.338;8.520;2023-01-25T14:32:24;2.80;92.40
75113;DHT22;63692;47.338;8.520;2023-01-25T14:34:50;2.70;92.10
75113;DHT22;63692;47.338;8.520;2023-01-25T14:42:41;2.70;92.30
75113;DHT22;63692;47.338;8.520;2023-01-25T14:47:36;2.60;92.50
75113;DHT22;63692;47.338;8.520;2023-01-25T14:52:57;2.70;92.40
75113;DHT22;63692;47.338;8.520;2023-01-25T14:55:23;2.70;92.80
75113;DHT22;63692;47.338;8.520;2023-01-25T14:57:49;2.70;92.70
75113;DHT22;63692;47.338;8.520;2023-01-25T15:00:25;2.70;92.70
75113;DHT22;63692;47.338;8.520;2023-01-25T15:02:59;2.70;92.60
75113;DHT22;63692;47.338;8.520;2023-01-25T15:05:29;2.70;92.50
75113;DHT22;63692;47.338;8.520;2023-01-25T15:10:35;2.70;92.50
75113;DHT22;63692;47.338;8.520;2023-01-25T15:16:00;2.70;92.50
75113;DHT22;63692;47.338;8.520;2023-01-25T15:20:54;2.70;92.40
75113;DHT22;63692;47.338;8.520;2023-01-25T15:35:36;2.70;92.90
75113;DHT22;63692;47.338;8.520;2023-01-25T15:38:02;2.70;92.90
75113;DHT22;63692;47.338;8.520;2023-01-25T15:40:28;2.70;92.90
75113;DHT22;63692;47.338;8.520;2023-01-25T15:42:54;2.70;93.00
75113;DHT22;63692;47.338;8.520;2023-01-25T15:45:20;2.80;92.70
75113;DHT22;63692;47.338;8.520;2023-01-25T15:47:45;2.80;92.70
75113;DHT22;63692;47.338;8.520;2023-01-25T15:50:17;2.80;92.60
75113;DHT22;63692;47.338;8.520;2023-01-25T15:52:42;2.80;92.70
75113;DHT22;63692;47.338;8.520;2023-01-25T15:55:11;2.80;92.60
75113;DHT22;63692;47.338;8.520;2023-01-25T15:57:37;2.90;92.80
75113;DHT22;63692;47.338;8.520;2023-01-25T16:02:30;2.80;92.40
75113;DHT22;63692;47.338;8.520;2023-01-25T16:04:55;2.80;92.40
75113;DHT22;63692;47.338;8.520;2023-01-25T16:12:16;2.80;92.50
75113;DHT22;63692;47.338;8.520;2023-01-25T16:14:41;2.80;92.50
75113;DHT22;63692;47.338;8.520;2023-01-25T17:24:37;2.60;92.90
75113;DHT22;63692;47.338;8.520;2023-01-25T17:27:03;2.50;92.80
75113;DHT22;63692;47.338;8.520;2023-01-25T18:56:28;2.30;93.50
75113;DHT22;63692;47.338;8.520;2023-01-25T18:58:56;2.30;93.10
75113;DHT22;63692;47.338;8.520;2023-01-25T19:01:25;2.10;92.70
75113;DHT22;63692;47.338;8.520;2023-01-25T19:03:51;2.10;92.80
75113;DHT22;63692;47.338;8.520;2023-01-25T19:06:18;2.10;93.00
75113;DHT22;63692;47.338;8.520;2023-01-25T19:08:44;2.00;93.30
75113;DHT22;63692;47.338;8.520;2023-01-25T19:31:49;2.30;92.70
75113;DHT22;63692;47.338;8.520;2023-01-25T19:34:14;2.20;92.90
75113;DHT22;63692;47.338;8.520;2023-01-25T19:36:40;2.20;92.90
75113;DHT22;63692;47.338;8.520;2023-01-25T19:39:13;2.20;93.00
75113;DHT22;63692;47.338;8.520;2023-01-25T19:41:39;2.30;92.90
75113;DHT22;63692;47.338;8.520;2023-01-25T19:59:40;2.30;92.40
